Time;durP1;ratioP1;P1;durP2;ratioP2;P2;SDS_P1;SDS_P2;PMS_P1;PMS_P2;Temp;Humidity;BMP_temperature;BMP_pressure;BME280_temperature;BME280_humidity;BME280_pressure;Samples;Min_cycle;Max_cycle;Signal;HPM_P1;HPM_P2
2021/01/23 00:00:59;;;;;;;30.10;21.00;;;;;;;;;;6220651;28;20133;-69
2021/01/23 00:04:00;;;;;;;25.98;18.83;;;;;;;;;;6224562;28;20046;-67
2021/01/23 00:07:01;;;;;;;31.85;19.33;;;;;;;;;;6225711;28;20421;-68
2021/01/23 00:10:03;;;;;;;29.33;18.38;;;;;;;;;;6229959;28;20708;-66
2021/01/23 00:13:06;;;;;;;34.45;19.52;;;;;;;;;;6232299;28;20144;-65
2021/01/23 00:16:07;;;;;;;35.85;20.33;;;;;;;;;;6224805;28;20106;-67
2021/01/23 00:19:08;;;;;;;35.83;21.10;;;;;;;;;;6215849;28;20058;-69
2021/01/23 00:22:09;;;;;;;46.42;27.15;;;;;;;;;;6222743;28;20042;-66
2021/01/23 00:25:11;;;;;;;40.80;23.23;;;;;;;;;;6218898;28;20140;-68
2021/01/23 00:28:13;;;;;;;59.50;31.70;;;;;;;;;;6225005;28;20046;-67
2021/01/23 00:31:14;;;;;;;45.25;25.33;;;;;;;;;;6220969;28;20041;-64
2021/01/23 00:34:15;;;;;;;160.77;74.15;;;;;;;;;;6221367;28;20042;-65
2021/01/23 00:37:16;;;;;;;75.68;38.15;;;;;;;;;;6216330;28;20101;-66
2021/01/23 00:40:17;;;;;;;85.47;40.78;;;;;;;;;;6220402;28;20137;-66
2021/01/23 00:43:19;;;;;;;77.43;40.95;;;;;;;;;;6225753;28;20409;-67
2021/01/23 00:46:21;;;;;;;38.58;23.45;;;;;;;;;;6216576;28;20886;-65
2021/01/23 00:49:23;;;;;;;36.55;20.85;;;;;;;;;;6219189;28;20061;-65
2021/01/23 00:52:24;;;;;;;32.47;19.35;;;;;;;;;;6217818;28;20054;-69
2021/01/23 00:55:25;;;;;;;28.30;18.02;;;;;;;;;;6215771;28;20408;-67
2021/01/23 00:58:27;;;;;;;29.58;18.08;;;;;;;;;;6215341;28;20042;-67
2021/01/23 01:01:28;;;;;;;26.27;17.60;;;;;;;;;;6211987;28;20175;-70
2021/01/23 01:04:29;;;;;;;26.58;17.25;;;;;;;;;;6214992;28;20050;-65
2021/01/23 01:07:30;;;;;;;26.00;17.35;;;;;;;;;;6208648;28;20495;-66
2021/01/23 01:10:31;;;;;;;24.17;15.93;;;;;;;;;;6212890;28;20060;-66
2021/01/23 01:13:32;;;;;;;25.02;16.45;;;;;;;;;;6214193;28;20404;-66
2021/01/23 01:16:33;;;;;;;21.77;15.65;;;;;;;;;;6227252;28;20156;-69
2021/01/23 01:19:34;;;;;;;21.88;15.60;;;;;;;;;;6221788;28;20065;-66
2021/01/23 01:22:36;;;;;;;22.02;15.30;;;;;;;;;;6220012;28;20056;-66
2021/01/23 01:25:37;;;;;;;22.02;15.93;;;;;;;;;;6217274;28;20046;-66
2021/01/23 01:28:39;;;;;;;21.42;14.93;;;;;;;;;;6219762;28;20866;-66
2021/01/23 01:31:40;;;;;;;20.42;14.60;;;;;;;;;;6216541;28;20133;-67
2021/01/23 01:34:42;;;;;;;18.80;14.05;;;;;;;;;;6216385;28;20051;-69
2021/01/23 01:37:44;;;;;;;19.63;14.90;;;;;;;;;;6212489;28;20436;-67
2021/01/23 01:40:45;;;;;;;20.90;15.25;;;;;;;;;;6214037;28;20049;-68
2021/01/23 01:43:48;;;;;;;19.85;14.98;;;;;;;;;;6202366;28;20046;-70
2021/01/23 01:46:49;;;;;;;20.50;15.57;;;;;;;;;;6212586;28;20053;-65
2021/01/23 01:49:51;;;;;;;18.52;14.60;;;;;;;;;;6217175;28;20474;-66
2021/01/23 01:52:52;;;;;;;19.13;15.27;;;;;;;;;;6212838;28;20049;-68
2021/01/23 01:55:54;;;;;;;16.95;14.13;;;;;;;;;;6219789;28;20264;-66
2021/01/23 01:58:57;;;;;;;17.70;14.55;;;;;;;;;;6212252;28;20053;-69
2021/01/23 02:02:09;;;;;;;18.75;14.95;;;;;;;;;;6211776;28;20049;-65
2021/01/23 02:05:16;;;;;;;18.77;15.35;;;;;;;;;;6220140;28;20050;-67
2021/01/23 02:08:23;;;;;;;18.23;15.27;;;;;;;;;;6219846;28;20061;-68
2021/01/23 02:11:30;;;;;;;18.73;16.00;;;;;;;;;;6223831;28;20042;-66
2021/01/23 02:14:36;;;;;;;19.83;16.80;;;;;;;;;;6210403;28;20062;-69
2021/01/23 02:17:41;;;;;;;19.00;14.73;;;;;;;;;;6218977;28;20053;-66
2021/01/23 02:21:30;;;;;;;19.40;14.35;;;;;;;;;;6224686;28;20172;-66
2021/01/23 02:24:31;;;;;;;16.05;13.68;;;;;;;;;;6217269;28;20124;-67
2021/01/23 02:27:45;;;;;;;17.52;13.73;;;;;;;;;;6216437;28;20052;-66
2021/01/23 02:31:00;;;;;;;19.40;14.98;;;;;;;;;;6220837;28;20088;-66
2021/01/23 02:34:02;;;;;;;17.95;14.60;;;;;;;;;;6214123;28;20046;-68
2021/01/23 02:37:04;;;;;;;17.80;14.55;;;;;;;;;;6223298;28;20060;-67
2021/01/23 02:40:06;;;;;;;16.40;13.85;;;;;;;;;;6219485;28;20045;-67
2021/01/23 02:43:08;;;;;;;14.68;11.40;;;;;;;;;;6220677;28;20128;-65
2021/01/23 02:46:10;;;;;;;14.68;11.82;;;;;;;;;;6219552;28;20065;-65
2021/01/23 02:49:11;;;;;;;13.05;10.75;;;;;;;;;;6219585;28;20056;-70
2021/01/23 02:52:27;;;;;;;10.65;9.40;;;;;;;;;;6219154;28;20141;-65
2021/01/23 02:55:32;;;;;;;11.95;9.40;;;;;;;;;;6209028;28;20049;-66
2021/01/23 02:58:33;;;;;;;11.30;8.52;;;;;;;;;;6221226;28;20050;-66
2021/01/23 03:01:40;;;;;;;8.60;7.60;;;;;;;;;;6222800;28;20483;-66
2021/01/23 03:04:42;;;;;;;11.30;7.50;;;;;;;;;;6216567;28;20084;-68
2021/01/23 03:07:43;;;;;;;7.70;6.75;;;;;;;;;;6227265;28;20046;-67
2021/01/23 03:10:45;;;;;;;9.57;6.90;;;;;;;;;;6224137;28;20042;-67
2021/01/23 03:13:46;;;;;;;8.85;7.22;;;;;;;;;;6210774;28;20050;-69
2021/01/23 03:16:49;;;;;;;8.20;6.93;;;;;;;;;;6209411;28;20099;-67
2021/01/23 03:19:50;;;;;;;8.85;6.78;;;;;;;;;;6216204;28;20125;-69
2021/01/23 03:22:51;;;;;;;8.00;6.65;;;;;;;;;;6212885;28;20064;-71
2021/01/23 03:25:52;;;;;;;8.18;6.45;;;;;;;;;;6215896;28;20832;-69
2021/01/23 03:28:53;;;;;;;7.50;6.70;;;;;;;;;;6210432;28;20053;-67
2021/01/23 03:31:55;;;;;;;7.53;6.32;;;;;;;;;;6209295;28;20076;-68
2021/01/23 03:34:56;;;;;;;7.85;6.15;;;;;;;;;;6210079;28;20140;-67
2021/01/23 03:37:57;;;;;;;7.10;5.22;;;;;;;;;;6221835;28;20121;-69
2021/01/23 03:40:58;;;;;;;7.40;5.70;;;;;;;;;;6210647;28;20038;-69
2021/01/23 03:44:00;;;;;;;5.85;4.97;;;;;;;;;;6212026;28;20050;-70
2021/01/23 03:47:02;;;;;;;7.05;5.10;;;;;;;;;;6209233;28;20064;-68
2021/01/23 03:50:04;;;;;;;6.35;4.53;;;;;;;;;;6215133;28;20111;-66
2021/01/23 03:53:05;;;;;;;5.47;4.40;;;;;;;;;;6210279;28;20076;-68
2021/01/23 03:56:06;;;;;;;4.72;4.00;;;;;;;;;;6210508;28;20491;-72
2021/01/23 03:59:07;;;;;;;4.10;3.45;;;;;;;;;;6210762;28;20046;-69
2021/01/23 04:02:09;;;;;;;4.65;3.30;;;;;;;;;;6210700;28;20504;-67
2021/01/23 04:05:11;;;;;;;4.50;2.75;;;;;;;;;;6207715;28;20069;-70
2021/01/23 04:08:12;;;;;;;2.92;1.98;;;;;;;;;;6203436;28;22253;-68
2021/01/23 04:11:13;;;;;;;2.22;1.50;;;;;;;;;;6202464;28;20054;-70
2021/01/23 04:14:14;;;;;;;1.90;1.08;;;;;;;;;;6219505;28;20104;-67
2021/01/23 04:17:16;;;;;;;1.23;0.70;;;;;;;;;;6219986;28;20551;-67
2021/01/23 04:20:17;;;;;;;0.88;0.52;;;;;;;;;;6218107;28;20140;-67
2021/01/23 04:23:18;;;;;;;0.75;0.45;;;;;;;;;;6213094;28;20132;-69
2021/01/23 04:26:19;;;;;;;0.60;0.30;;;;;;;;;;6220641;28;20118;-69
2021/01/23 04:29:20;;;;;;;0.28;0.20;;;;;;;;;;6214682;28;20045;-68
2021/01/23 04:32:22;;;;;;;0.32;0.25;;;;;;;;;;6217515;28;20133;-68
2021/01/23 04:35:23;;;;;;;2.38;0.20;;;;;;;;;;6216110;28;20121;-67
2021/01/23 04:38:24;;;;;;;0.30;0.20;;;;;;;;;;6219500;28;20046;-70
2021/01/23 04:41:28;;;;;;;0.52;0.20;;;;;;;;;;6218500;28;20052;-67
2021/01/23 04:44:29;;;;;;;0.47;0.25;;;;;;;;;;6224402;28;20052;-69
2021/01/23 04:47:31;;;;;;;0.28;0.13;;;;;;;;;;6220866;28;20136;-67
2021/01/23 04:50:32;;;;;;;0.50;0.20;;;;;;;;;;6227434;28;20053;-70
2021/01/23 04:53:34;;;;;;;0.47;0.30;;;;;;;;;;6227333;28;20488;-67
2021/01/23 04:56:35;;;;;;;1.63;0.50;;;;;;;;;;6224314;28;20038;-70
2021/01/23 04:59:37;;;;;;;0.60;0.20;;;;;;;;;;6219251;28;20408;-69
2021/01/23 05:02:39;;;;;;;1.10;0.25;;;;;;;;;;6223920;28;20045;-69
2021/01/23 05:05:40;;;;;;;0.82;0.20;;;;;;;;;;6219279;28;20049;-69
2021/01/23 05:08:41;;;;;;;1.05;0.30;;;;;;;;;;6226393;28;20125;-70
2021/01/23 05:11:46;;;;;;;0.75;0.32;;;;;;;;;;6218241;28;20130;-70
2021/01/23 05:14:52;;;;;;;0.30;0.20;;;;;;;;;;6226444;28;20078;-70
2021/01/23 05:17:55;;;;;;;0.68;0.03;;;;;;;;;;6228349;28;20046;-70
2021/01/23 05:20:56;;;;;;;0.20;0.10;;;;;;;;;;6220647;28;20405;-70
2021/01/23 05:24:09;;;;;;;0.20;0.10;;;;;;;;;;6224735;28;20061;-71
2021/01/23 05:27:10;;;;;;;0.10;0.10;;;;;;;;;;6223687;28;20045;-69
2021/01/23 05:30:12;;;;;;;0.20;0.10;;;;;;;;;;6230789;28;20508;-70
2021/01/23 05:33:15;;;;;;;0.20;0.10;;;;;;;;;;6222361;28;20096;-74
2021/01/23 05:36:16;;;;;;;0.00;0.00;;;;;;;;;;6224369;28;20057;-71
2021/01/23 05:39:17;;;;;;;0.00;0.00;;;;;;;;;;6226397;28;20125;-70
2021/01/23 05:42:18;;;;;;;0.10;0.10;;;;;;;;;;6221997;28;20056;-67
2021/01/23 05:45:19;;;;;;;0.10;0.10;;;;;;;;;;6221789;28;20126;-70
2021/01/23 05:48:21;;;;;;;0.30;0.13;;;;;;;;;;6217450;28;20133;-76
2021/01/23 05:51:23;;;;;;;0.10;0.00;;;;;;;;;;6220487;28;20049;-68
2021/01/23 05:54:24;;;;;;;0.40;0.20;;;;;;;;;;6223963;28;20050;-67
2021/01/23 05:57:26;;;;;;;0.20;0.10;;;;;;;;;;6220003;28;20061;-69
2021/01/23 06:00:27;;;;;;;0.38;0.15;;;;;;;;;;6219894;28;20058;-72
2021/01/23 06:03:33;;;;;;;0.35;0.20;;;;;;;;;;6219723;28;20042;-77
2021/01/23 06:06:44;;;;;;;0.38;0.10;;;;;;;;;;6215917;28;20479;-69
2021/01/23 06:09:45;;;;;;;0.90;0.10;;;;;;;;;;6225803;28;20046;-69
2021/01/23 06:12:46;;;;;;;0.20;0.10;;;;;;;;;;6216127;28;20480;-70
2021/01/23 06:15:47;;;;;;;0.95;0.25;;;;;;;;;;6228224;28;20073;-73
2021/01/23 06:18:49;;;;;;;0.20;0.10;;;;;;;;;;6217131;28;20046;-69
2021/01/23 06:21:51;;;;;;;0.32;0.17;;;;;;;;;;6216594;28;20115;-69
2021/01/23 06:24:56;;;;;;;0.15;0.15;;;;;;;;;;6217041;28;20052;-70
2021/01/23 06:27:57;;;;;;;0.70;0.20;;;;;;;;;;6223616;28;20440;-70
2021/01/23 06:31:37;;;;;;;0.60;0.30;;;;;;;;;;6223998;28;20645;-70
2021/01/23 06:34:45;;;;;;;1.15;0.28;;;;;;;;;;6220561;28;20580;-69
2021/01/23 06:37:46;;;;;;;0.63;0.35;;;;;;;;;;6217135;28;20054;-70
2021/01/23 06:40:47;;;;;;;1.73;0.40;;;;;;;;;;6221650;28;20046;-69
2021/01/23 06:44:17;;;;;;;0.38;0.35;;;;;;;;;;6219152;28;20446;-70
2021/01/23 06:47:18;;;;;;;0.50;0.40;;;;;;;;;;6219184;28;20057;-69
2021/01/23 06:50:36;;;;;;;0.82;0.38;;;;;;;;;;6215097;28;20134;-69
2021/01/23 06:53:37;;;;;;;0.65;0.40;;;;;;;;;;6220656;28;20101;-70
2021/01/23 06:56:41;;;;;;;0.80;0.30;;;;;;;;;;6220878;28;20057;-66
2021/01/23 06:59:42;;;;;;;0.35;0.20;;;;;;;;;;6217095;28;20050;-69
2021/01/23 07:02:43;;;;;;;1.08;0.30;;;;;;;;;;6225769;28;20124;-75
2021/01/23 07:05:50;;;;;;;0.95;0.20;;;;;;;;;;6215869;28;20058;-70
2021/01/23 07:08:51;;;;;;;1.65;0.20;;;;;;;;;;6216794;28;20077;-70
2021/01/23 07:11:52;;;;;;;0.60;0.20;;;;;;;;;;6216056;28;20133;-69
2021/01/23 07:14:53;;;;;;;0.08;0.05;;;;;;;;;;6220628;28;20140;-68
2021/01/23 07:17:54;;;;;;;0.35;0.10;;;;;;;;;;6221880;28;20136;-69
2021/01/23 07:20:56;;;;;;;0.20;0.20;;;;;;;;;;6223541;28;20060;-67
2021/01/23 07:23:57;;;;;;;0.68;0.30;;;;;;;;;;6223187;28;20054;-75
2021/01/23 07:26:58;;;;;;;0.50;0.25;;;;;;;;;;6223824;28;20069;-66
2021/01/23 07:29:59;;;;;;;0.60;0.30;;;;;;;;;;6217506;28;20033;-73
2021/01/23 07:33:01;;;;;;;1.42;0.20;;;;;;;;;;6215322;28;20084;-66
2021/01/23 07:36:03;;;;;;;0.55;0.20;;;;;;;;;;6217070;28;20056;-68
2021/01/23 07:39:10;;;;;;;0.50;0.20;;;;;;;;;;6224768;28;20091;-66
2021/01/23 07:42:12;;;;;;;1.48;0.15;;;;;;;;;;6217976;28;20061;-66
2021/01/23 07:45:14;;;;;;;0.20;0.20;;;;;;;;;;6213243;28;20137;-79
2021/01/23 07:48:15;;;;;;;0.45;0.40;;;;;;;;;;6229511;28;20556;-69
2021/01/23 07:51:24;;;;;;;0.80;0.32;;;;;;;;;;6217348;28;20063;-67
2021/01/23 07:54:25;;;;;;;1.00;0.30;;;;;;;;;;6226772;28;20107;-67
2021/01/23 07:57:26;;;;;;;1.00;0.35;;;;;;;;;;6220564;28;20455;-71
2021/01/23 08:00:29;;;;;;;0.50;0.30;;;;;;;;;;6216892;28;20083;-70
2021/01/23 08:03:34;;;;;;;1.50;0.70;;;;;;;;;;6219593;28;20050;-67
2021/01/23 08:06:36;;;;;;;1.00;0.30;;;;;;;;;;6217949;28;20057;-67
2021/01/23 08:09:37;;;;;;;1.15;0.40;;;;;;;;;;6217817;28;20449;-69
2021/01/23 08:12:39;;;;;;;0.30;0.20;;;;;;;;;;6211110;28;20062;-67
2021/01/23 08:15:40;;;;;;;1.48;0.30;;;;;;;;;;6210636;28;20840;-69
2021/01/23 08:18:42;;;;;;;0.57;0.20;;;;;;;;;;6219255;28;20099;-69
2021/01/23 08:22:04;;;;;;;1.33;0.20;;;;;;;;;;6222542;28;20125;-68
2021/01/23 08:25:24;;;;;;;2.63;0.60;;;;;;;;;;6216207;28;20500;-76
2021/01/23 08:28:35;;;;;;;1.90;0.90;;;;;;;;;;6220816;28;20540;-70
2021/01/23 08:31:36;;;;;;;1.13;0.70;;;;;;;;;;6218661;28;20104;-69
2021/01/23 08:34:37;;;;;;;1.77;0.80;;;;;;;;;;6215052;28;20062;-67
2021/01/23 08:37:39;;;;;;;1.58;0.90;;;;;;;;;;6215715;28;20113;-71
2021/01/23 08:40:41;;;;;;;1.80;1.10;;;;;;;;;;6215799;28;20055;-67
2021/01/23 08:43:41;;;;;;;5.30;1.23;;;;;;;;;;6216510;28;20054;-67
2021/01/23 08:46:43;;;;;;;1.92;0.95;;;;;;;;;;6219296;28;20210;-71
2021/01/23 08:49:44;;;;;;;4.53;2.53;;;;;;;;;;6218787;28;21032;-69
2021/01/23 08:52:46;;;;;;;1.92;1.30;;;;;;;;;;6215119;28;20054;-69
2021/01/23 08:55:47;;;;;;;4.78;1.48;;;;;;;;;;6216797;28;20096;-67
2021/01/23 08:58:48;;;;;;;2.40;1.48;;;;;;;;;;6217548;28;20165;-70
2021/01/23 09:01:49;;;;;;;2.50;1.38;;;;;;;;;;6211169;28;20137;-67
2021/01/23 09:04:50;;;;;;;2.72;1.55;;;;;;;;;;6222075;28;20060;-68
2021/01/23 09:07:52;;;;;;;1.85;1.20;;;;;;;;;;6217389;28;20066;-68
2021/01/23 09:10:53;;;;;;;3.53;1.50;;;;;;;;;;6217205;28;20045;-67
2021/01/23 09:13:56;;;;;;;2.75;1.30;;;;;;;;;;6217247;28;20045;-66
2021/01/23 09:16:57;;;;;;;4.47;1.75;;;;;;;;;;6220632;28;20054;-66
2021/01/23 09:19:58;;;;;;;3.80;2.17;;;;;;;;;;6214459;28;20061;-70
2021/01/23 09:23:00;;;;;;;4.57;1.60;;;;;;;;;;6218575;28;20056;-68
2021/01/23 09:26:02;;;;;;;2.42;1.55;;;;;;;;;;6216435;28;20132;-66
2021/01/23 09:29:03;;;;;;;2.65;1.80;;;;;;;;;;6214837;28;20050;-69
2021/01/23 09:32:06;;;;;;;5.82;3.55;;;;;;;;;;6220982;28;20482;-66
2021/01/23 09:35:08;;;;;;;4.65;2.22;;;;;;;;;;6217016;28;20088;-71
2021/01/23 09:38:10;;;;;;;3.22;2.05;;;;;;;;;;6215484;28;20085;-69
2021/01/23 09:41:11;;;;;;;5.90;2.90;;;;;;;;;;6215747;28;20072;-69
2021/01/23 09:44:12;;;;;;;7.88;3.00;;;;;;;;;;6223419;28;20068;-68
2021/01/23 09:47:14;;;;;;;5.28;3.85;;;;;;;;;;6214745;28;20057;-72
2021/01/23 09:50:18;;;;;;;5.72;3.60;;;;;;;;;;6216272;28;20061;-70
2021/01/23 09:53:20;;;;;;;8.45;4.40;;;;;;;;;;6210344;28;20416;-69
2021/01/23 09:56:22;;;;;;;6.00;4.70;;;;;;;;;;6211200;28;20056;-67
2021/01/23 09:59:23;;;;;;;5.93;4.35;;;;;;;;;;6216595;28;20054;-67
2021/01/23 10:02:25;;;;;;;6.97;5.38;;;;;;;;;;6218015;28;20055;-67
2021/01/23 10:05:26;;;;;;;9.40;5.50;;;;;;;;;;6210020;28;20081;-70
2021/01/23 10:08:28;;;;;;;7.68;6.03;;;;;;;;;;6210757;28;20115;-69
2021/01/23 10:11:29;;;;;;;7.57;5.80;;;;;;;;;;6213327;28;20057;-68
2021/01/23 10:14:30;;;;;;;7.80;6.13;;;;;;;;;;6217821;28;20480;-69
2021/01/23 10:17:31;;;;;;;8.38;6.18;;;;;;;;;;6213527;28;20042;-68
2021/01/23 10:20:32;;;;;;;9.95;5.80;;;;;;;;;;6213590;28;20149;-67
2021/01/23 10:23:34;;;;;;;7.85;6.88;;;;;;;;;;6217132;28;20053;-72
2021/01/23 10:26:35;;;;;;;9.57;6.28;;;;;;;;;;6213467;28;20050;-68
2021/01/23 10:29:36;;;;;;;6.38;5.00;;;;;;;;;;6208035;28;20056;-70
2021/01/23 10:32:37;;;;;;;8.55;5.90;;;;;;;;;;6212439;28;20055;-68
2021/01/23 10:35:38;;;;;;;6.10;4.70;;;;;;;;;;6212650;28;20130;-71
2021/01/23 10:38:40;;;;;;;6.03;4.30;;;;;;;;;;6214170;28;20049;-68
2021/01/23 10:41:41;;;;;;;5.70;3.85;;;;;;;;;;6208399;28;20054;-68
2021/01/23 10:44:42;;;;;;;6.60;4.30;;;;;;;;;;6212218;28;20054;-68
2021/01/23 10:47:43;;;;;;;6.18;4.47;;;;;;;;;;6216241;28;20165;-69
2021/01/23 10:50:44;;;;;;;8.23;5.28;;;;;;;;;;6207222;28;20046;-71
2021/01/23 10:53:47;;;;;;;8.68;5.45;;;;;;;;;;6209387;28;20057;-69
2021/01/23 10:56:48;;;;;;;10.18;6.85;;;;;;;;;;6213085;28;20061;-69
2021/01/23 10:59:49;;;;;;;9.00;6.28;;;;;;;;;;5518834;28;10000806;-69
2021/01/23 11:02:50;;;;;;;9.02;6.90;;;;;;;;;;6215791;28;20099;-68
2021/01/23 11:05:51;;;;;;;8.13;6.38;;;;;;;;;;6216527;28;20050;-69
2021/01/23 11:08:53;;;;;;;8.07;5.72;;;;;;;;;;6210355;28;20054;-69
2021/01/23 11:11:54;;;;;;;9.52;6.75;;;;;;;;;;6209022;28;20046;-71
2021/01/23 11:14:55;;;;;;;10.13;6.43;;;;;;;;;;6209016;28;20054;-69
2021/01/23 11:17:56;;;;;;;9.63;6.53;;;;;;;;;;6210101;28;20125;-70
2021/01/23 11:20:57;;;;;;;8.02;5.82;;;;;;;;;;6211953;28;20046;-72
2021/01/23 11:23:59;;;;;;;9.95;6.15;;;;;;;;;;6210337;28;20038;-69
2021/01/23 11:27:00;;;;;;;9.50;5.72;;;;;;;;;;6209586;28;20046;-69
2021/01/23 11:30:01;;;;;;;7.68;5.30;;;;;;;;;;6212842;28;20103;-69
2021/01/23 11:33:03;;;;;;;10.57;5.10;;;;;;;;;;6214779;28;20034;-69
2021/01/23 11:36:04;;;;;;;9.18;5.20;;;;;;;;;;6218802;28;20041;-69
2021/01/23 11:39:06;;;;;;;8.70;5.07;;;;;;;;;;6214360;28;20057;-70
2021/01/23 11:42:07;;;;;;;7.53;5.20;;;;;;;;;;6215183;28;20424;-68
2021/01/23 11:45:09;;;;;;;12.32;5.65;;;;;;;;;;6212718;28;20042;-69
2021/01/23 11:48:11;;;;;;;7.45;4.40;;;;;;;;;;6211892;28;20046;-69
2021/01/23 11:51:12;;;;;;;7.60;4.25;;;;;;;;;;6210171;28;20087;-69
2021/01/23 11:54:14;;;;;;;5.63;3.65;;;;;;;;;;6211095;28;20461;-71
2021/01/23 11:57:15;;;;;;;7.35;3.90;;;;;;;;;;6199736;28;20088;-71
2021/01/23 12:00:19;;;;;;;7.93;3.45;;;;;;;;;;6204151;28;20057;-69
2021/01/23 12:03:20;;;;;;;9.57;3.80;;;;;;;;;;6210636;28;20050;-68
2021/01/23 12:06:21;;;;;;;5.22;3.50;;;;;;;;;;6206888;28;20068;-69
2021/01/23 12:09:23;;;;;;;6.72;3.85;;;;;;;;;;6207896;28;20049;-68
2021/01/23 12:12:24;;;;;;;6.18;3.40;;;;;;;;;;6212842;28;20041;-70
2021/01/23 12:15:25;;;;;;;7.20;3.65;;;;;;;;;;6215608;28;20160;-72
2021/01/23 12:18:26;;;;;;;6.10;4.22;;;;;;;;;;6218009;28;20054;-68
2021/01/23 12:21:27;;;;;;;5.65;3.80;;;;;;;;;;6221475;28;20403;-72
2021/01/23 12:24:31;;;;;;;10.98;7.43;;;;;;;;;;6214699;28;20111;-66
2021/01/23 12:27:32;;;;;;;5.72;4.65;;;;;;;;;;6216819;28;20053;-69
2021/01/23 12:30:33;;;;;;;5.32;3.83;;;;;;;;;;6214174;28;20674;-69
2021/01/23 12:33:34;;;;;;;4.22;3.45;;;;;;;;;;6208992;28;20042;-69
2021/01/23 12:36:35;;;;;;;6.35;3.97;;;;;;;;;;6212667;28;20068;-72
2021/01/23 12:39:37;;;;;;;5.15;3.88;;;;;;;;;;6212613;28;20102;-69
2021/01/23 12:42:39;;;;;;;4.32;3.22;;;;;;;;;;6212286;28;20343;-69
2021/01/23 12:45:41;;;;;;;5.35;3.38;;;;;;;;;;6209186;28;20046;-69
2021/01/23 12:48:42;;;;;;;6.15;3.33;;;;;;;;;;6216468;28;20053;-68
2021/01/23 12:51:43;;;;;;;3.90;3.42;;;;;;;;;;6201061;28;20645;-69
2021/01/23 12:54:44;;;;;;;3.58;3.28;;;;;;;;;;6211252;28;20050;-69
2021/01/23 12:57:45;;;;;;;5.18;3.25;;;;;;;;;;6216601;28;20089;-71
2021/01/23 13:00:46;;;;;;;6.28;3.65;;;;;;;;;;6205564;28;20137;-67
2021/01/23 13:03:48;;;;;;;4.30;3.50;;;;;;;;;;6213198;28;20068;-67
2021/01/23 13:06:49;;;;;;;4.57;3.55;;;;;;;;;;6217285;28;20065;-68
2021/01/23 13:09:51;;;;;;;3.33;2.85;;;;;;;;;;6213564;28;20041;-68
2021/01/23 13:12:52;;;;;;;3.60;3.20;;;;;;;;;;6209824;28;20064;-69
2021/01/23 13:15:53;;;;;;;4.93;3.10;;;;;;;;;;6210135;28;21584;-67
2021/01/23 13:18:54;;;;;;;5.43;3.35;;;;;;;;;;6206037;28;20108;-69
2021/01/23 13:21:55;;;;;;;4.25;3.20;;;;;;;;;;6212872;28;20459;-68
2021/01/23 13:24:57;;;;;;;7.00;3.35;;;;;;;;;;6212150;28;20232;-68
2021/01/23 13:27:58;;;;;;;5.03;3.08;;;;;;;;;;6221951;28;20072;-68
2021/01/23 13:30:59;;;;;;;5.63;3.17;;;;;;;;;;6221131;28;20052;-67
2021/01/23 13:34:00;;;;;;;4.75;3.10;;;;;;;;;;6213700;28;20099;-67
2021/01/23 13:37:01;;;;;;;3.85;2.70;;;;;;;;;;6213431;28;20103;-68
2021/01/23 13:40:04;;;;;;;3.92;3.10;;;;;;;;;;6214416;28;20050;-68
2021/01/23 13:43:06;;;;;;;2.83;1.90;;;;;;;;;;6214045;28;20053;-67
2021/01/23 13:46:07;;;;;;;2.92;2.60;;;;;;;;;;6211098;28;20045;-67
2021/01/23 13:49:08;;;;;;;2.90;2.60;;;;;;;;;;6218868;28;20091;-68
2021/01/23 13:52:09;;;;;;;2.70;2.20;;;;;;;;;;6207687;28;20386;-67
2021/01/23 13:55:11;;;;;;;3.40;2.70;;;;;;;;;;6213155;28;20086;-68
2021/01/23 13:58:12;;;;;;;3.67;2.50;;;;;;;;;;6217657;28;20454;-68
2021/01/23 14:01:13;;;;;;;3.80;2.60;;;;;;;;;;6210693;28;20041;-67
2021/01/23 14:07:25;;;;;;;6.57;2.90;;;;;;;;;;7611445;22;20714;-72
2021/01/23 14:10:28;;;;;;;3.38;2.20;;;;;;;;;;6224123;28;20132;-71
2021/01/23 14:13:29;;;;;;;2.85;2.15;;;;;;;;;;6231857;28;20095;-69
2021/01/23 14:16:30;;;;;;;2.97;2.30;;;;;;;;;;6222324;28;20530;-69
2021/01/23 14:19:31;;;;;;;2.67;2.35;;;;;;;;;;6232958;28;20067;-69
2021/01/23 14:22:32;;;;;;;2.80;2.38;;;;;;;;;;6230217;28;20124;-69
2021/01/23 14:25:33;;;;;;;4.28;2.38;;;;;;;;;;6222046;28;20056;-69
2021/01/23 14:28:35;;;;;;;3.22;2.72;;;;;;;;;;6235165;28;20052;-70
2021/01/23 14:31:36;;;;;;;3.50;2.63;;;;;;;;;;6227151;28;20112;-69
2021/01/23 14:34:37;;;;;;;4.05;2.42;;;;;;;;;;6229761;28;20136;-68
2021/01/23 14:37:38;;;;;;;3.65;2.20;;;;;;;;;;6225586;28;20041;-68
2021/01/23 14:40:40;;;;;;;3.67;2.55;;;;;;;;;;6233635;28;20071;-68
2021/01/23 14:43:41;;;;;;;5.05;2.40;;;;;;;;;;6232314;28;20088;-72
2021/01/23 14:46:44;;;;;;;3.63;2.50;;;;;;;;;;5619211;28;10005730;-68
2021/01/23 14:49:45;;;;;;;4.20;2.47;;;;;;;;;;6238529;28;20075;-70
2021/01/23 14:52:47;;;;;;;3.20;2.35;;;;;;;;;;6230284;28;20059;-72
2021/01/23 14:55:50;;;;;;;3.15;2.20;;;;;;;;;;6232314;28;20046;-66
2021/01/23 14:58:51;;;;;;;3.73;2.10;;;;;;;;;;6232706;28;20132;-67
2021/01/23 15:01:53;;;;;;;4.15;2.50;;;;;;;;;;6230350;28;20140;-70
2021/01/23 15:04:54;;;;;;;3.80;2.30;;;;;;;;;;6229241;28;20076;-69
2021/01/23 15:07:55;;;;;;;2.92;2.08;;;;;;;;;;6234336;28;20191;-67
2021/01/23 15:10:57;;;;;;;3.30;2.17;;;;;;;;;;6226684;28;21904;-68
2021/01/23 15:13:59;;;;;;;2.53;2.05;;;;;;;;;;6231941;28;21480;-69
2021/01/23 15:17:00;;;;;;;3.85;3.00;;;;;;;;;;6228591;28;20465;-67
2021/01/23 15:20:01;;;;;;;5.03;2.72;;;;;;;;;;6226593;28;20049;-67
2021/01/23 15:23:02;;;;;;;3.35;2.65;;;;;;;;;;6225544;28;20045;-68
2021/01/23 15:26:04;;;;;;;4.63;3.35;;;;;;;;;;6227243;28;20049;-70
2021/01/23 15:29:05;;;;;;;4.47;2.92;;;;;;;;;;6227153;28;20064;-67
2021/01/23 15:32:06;;;;;;;6.45;3.25;;;;;;;;;;6224620;28;20131;-69
2021/01/23 15:35:09;;;;;;;4.78;2.92;;;;;;;;;;6226575;28;20147;-69
2021/01/23 15:38:10;;;;;;;3.83;3.08;;;;;;;;;;6231617;28;20112;-67
2021/01/23 15:41:11;;;;;;;6.53;3.55;;;;;;;;;;6228390;28;20545;-68
2021/01/23 15:44:12;;;;;;;4.15;3.13;;;;;;;;;;6230570;28;20525;-68
2021/01/23 15:47:14;;;;;;;5.97;3.20;;;;;;;;;;5879074;28;10000301;-67
2021/01/23 15:50:15;;;;;;;4.93;3.67;;;;;;;;;;6231517;28;20076;-67
2021/01/23 15:53:16;;;;;;;4.90;3.45;;;;;;;;;;6226036;28;20044;-67
2021/01/23 15:56:18;;;;;;;4.43;3.22;;;;;;;;;;6231696;28;20504;-67
2021/01/23 15:59:19;;;;;;;5.43;3.20;;;;;;;;;;6231192;28;20483;-68
2021/01/23 16:02:20;;;;;;;4.35;3.30;;;;;;;;;;6230114;28;20060;-68
2021/01/23 16:05:21;;;;;;;5.00;3.70;;;;;;;;;;6232736;28;20053;-67
2021/01/23 16:08:22;;;;;;;5.68;3.40;;;;;;;;;;6230191;28;20144;-68
2021/01/23 16:11:25;;;;;;;5.72;3.70;;;;;;;;;;6232679;28;20037;-67
2021/01/23 16:14:26;;;;;;;5.60;3.97;;;;;;;;;;6232904;28;20133;-68
2021/01/23 16:17:28;;;;;;;6.97;4.38;;;;;;;;;;6230594;28;20394;-68
2021/01/23 16:20:33;;;;;;;8.88;3.90;;;;;;;;;;6230047;28;20136;-67
2021/01/23 16:23:34;;;;;;;6.53;4.40;;;;;;;;;;6229653;28;21668;-68
2021/01/23 16:26:36;;;;;;;8.77;4.40;;;;;;;;;;6234408;28;20053;-67
2021/01/23 16:29:39;;;;;;;8.27;4.50;;;;;;;;;;6236179;28;20384;-68
2021/01/23 16:32:40;;;;;;;6.97;4.80;;;;;;;;;;6232638;28;20132;-67
2021/01/23 16:35:41;;;;;;;10.05;5.10;;;;;;;;;;6233872;28;20053;-67
2021/01/23 16:38:42;;;;;;;7.63;4.97;;;;;;;;;;6236019;28;20060;-69
2021/01/23 16:41:45;;;;;;;8.48;4.90;;;;;;;;;;6239492;28;20045;-66
2021/01/23 16:44:46;;;;;;;7.30;5.47;;;;;;;;;;6238207;28;20152;-71
2021/01/23 16:47:47;;;;;;;9.93;5.53;;;;;;;;;;6236273;28;20075;-69
2021/01/23 16:50:48;;;;;;;9.40;6.18;;;;;;;;;;6232009;28;20048;-69
2021/01/23 16:53:49;;;;;;;7.80;6.00;;;;;;;;;;6238689;28;20053;-71
2021/01/23 16:56:52;;;;;;;8.27;5.65;;;;;;;;;;6242699;28;20519;-70
2021/01/23 16:59:53;;;;;;;8.63;6.55;;;;;;;;;;6241489;28;20046;-68
2021/01/23 17:02:54;;;;;;;8.80;6.85;;;;;;;;;;6238619;28;20099;-69
2021/01/23 17:05:57;;;;;;;9.65;7.13;;;;;;;;;;6239650;28;20053;-68
2021/01/23 17:08:58;;;;;;;10.30;6.93;;;;;;;;;;6233933;28;20128;-72
2021/01/23 17:12:00;;;;;;;8.55;6.60;;;;;;;;;;6234296;28;20064;-72
2021/01/23 17:15:01;;;;;;;12.90;7.65;;;;;;;;;;6231409;28;20060;-68
2021/01/23 17:18:02;;;;;;;10.98;8.00;;;;;;;;;;6231573;28;20061;-72
2021/01/23 17:21:03;;;;;;;12.82;8.27;;;;;;;;;;6228639;28;20052;-71
2021/01/23 17:24:05;;;;;;;11.65;8.20;;;;;;;;;;6231615;28;20052;-70
2021/01/23 17:27:07;;;;;;;13.35;7.82;;;;;;;;;;6228608;28;20045;-71
2021/01/23 17:30:09;;;;;;;11.38;7.82;;;;;;;;;;6233677;28;20340;-65
2021/01/23 17:33:11;;;;;;;11.80;7.95;;;;;;;;;;6236175;28;20045;-71
2021/01/23 17:36:12;;;;;;;12.38;8.82;;;;;;;;;;6227994;28;20535;-70
2021/01/23 17:39:13;;;;;;;10.25;8.13;;;;;;;;;;6240483;28;20045;-69
2021/01/23 17:42:15;;;;;;;11.00;8.02;;;;;;;;;;6229269;28;20052;-69
2021/01/23 17:45:16;;;;;;;10.55;8.13;;;;;;;;;;6232397;28;20046;-66
2021/01/23 17:48:17;;;;;;;12.05;8.70;;;;;;;;;;6235770;28;20046;-66
2021/01/23 17:51:18;;;;;;;12.13;8.85;;;;;;;;;;6226453;28;20044;-68
2021/01/23 17:54:19;;;;;;;12.52;8.60;;;;;;;;;;6236186;28;20136;-67
2021/01/23 17:57:21;;;;;;;11.88;8.80;;;;;;;;;;6234080;28;20128;-71
2021/01/23 18:00:23;;;;;;;12.75;9.20;;;;;;;;;;6232470;28;20137;-69
2021/01/23 18:03:24;;;;;;;12.85;9.30;;;;;;;;;;6235198;28;20046;-67
2021/01/23 18:06:25;;;;;;;12.07;9.18;;;;;;;;;;6235877;28;20430;-67
2021/01/23 18:09:26;;;;;;;12.65;9.27;;;;;;;;;;6234527;28;20072;-68